KBTP

Pittsburgh / Butler Regional Airport

Butler, Pennsylvania, USA
METAR KBTP 212356Z AUTO 34007KT 10SM OVC011 06/03 A3049 RMK AO2 SLP333 6//// T00560033 10133 20056 51024
Observed Flight Rules
Feb-21 @ 23:56 UTC (5 hours ago) Marginal Visual Flight Rules
Wind Visibility Clouds
340° at 7 knots 10 miles
  • Overcast at 1,100' AGL
Temperatures Readings
Current 6°C / 43°F
Dewpoint 3°C / 37°F
Humidity 81%
Altimeter 30.49" Hg
Pressure 1033.3 hPa
Elevation 380
METAR KBTP 212356Z AUTO 34007KT 10SM OVC011 06/03 A3049 RMK AO2 SLP333 6//// T00560033 10133 20056 51024
Observed Flight Rules
Feb-21 @ 23:56 UTC
(5 hours ago)
MVFR
Wind Visibility
340° at 7 knots 10 miles
Clouds
  • Overcast at 1,100' AGL
Temperature Dewpoint
6°C / 43°F 3°C / 37°F
Humidity Altimeter Pressure
81% 30.49" Hg 1033.3 hPa